Corozal, Belize
Current Conditions -  °F | °C
As of 5:40 PM on Saturday 25 Oct 2014 (Local Time) from MMCM Reporting Station
Broken Clouds Broken Clouds  
Wind Chill: 79°   Ceiling: 20000
Heat Index: 82°   Visibility: 7mi
Dew Point: 75°   Wind: 0mph
Humidity: 89%   Direction: NA
Pressure: 29.94"   Gusts: NA
Location:  18.4°N, 88.39°W
Report Text: MMCM 252340Z 00000KT 7SM BKN200 26/24 A2994 RMK SLP140 5//// 944 8/002 RTS
Loading
Personal Weather Stations






























Interactive Weather Map
Tropical Storm Tracking
New forecast layout! Learn more

10-Day Weather Forecast

Advertisements
Track Severe Weather on mobile